Time;durP1;ratioP1;P1;durP2;ratioP2;P2;SDS_P1;SDS_P2;PMS_P1;PMS_P2;Temp;Humidity;BMP_temperature;BMP_pressure;BME280_temperature;BME280_humidity;BME280_pressure;Samples;Min_cycle;Max_cycle;Signal;HPM_P1;HPM_P2
2023/06/12 00:01:05;;;;;;;3.03;1.50;;;17.20;22.70;;;;;;4984809;28;20071;-69
2023/06/12 00:03:31;;;;;;;1.65;1.17;;;17.20;24.70;;;;;;4955294;28;20578;-68
2023/06/12 00:05:58;;;;;;;2.05;1.30;;;17.20;23.70;;;;;;4970929;28;20054;-69
2023/06/12 00:08:27;;;;;;;1.80;1.20;;;17.10;24.80;;;;;;4955703;28;20046;-69
2023/06/12 00:10:53;;;;;;;1.25;1.15;;;17.10;25.10;;;;;;4986962;28;20511;-68
2023/06/12 00:13:18;;;;;;;2.28;1.05;;;17.10;25.40;;;;;;4986491;28;20053;-69
2023/06/12 00:15:44;;;;;;;1.13;1.02;;;17.10;25.40;;;;;;4971208;28;20268;-69
2023/06/12 00:18:11;;;;;;;5.45;1.40;;;17.10;27.80;;;;;;4970764;28;20042;-68
2023/06/12 00:20:36;;;;;;;6.32;1.00;;;17.00;28.10;;;;;;4955262;28;20097;-69
2023/06/12 00:23:02;;;;;;;4.00;1.55;;;16.90;28.50;;;;;;4969470;28;20086;-68
2023/06/12 00:25:28;;;;;;;1.27;1.00;;;16.90;28.50;;;;;;4971712;28;20050;-69
2023/06/12 00:27:54;;;;;;;5.32;1.10;;;16.90;29.80;;;;;;4986504;28;20529;-69
2023/06/12 00:30:22;;;;;;;1.65;1.45;;;16.90;30.60;;;;;;4988067;28;20046;-69
2023/06/12 00:32:48;;;;;;;1.27;0.93;;;16.80;31.10;;;;;;4985896;28;20407;-69
2023/06/12 00:35:18;;;;;;;3.40;1.27;;;16.80;32.90;;;;;;4979864;28;20082;-69
2023/06/12 00:37:45;;;;;;;1.00;1.00;;;16.80;34.00;;;;;;4987580;28;20385;-69
2023/06/12 00:40:12;;;;;;;1.70;1.40;;;16.70;34.30;;;;;;4998494;28;20053;-69
2023/06/12 00:42:42;;;;;;;2.60;0.82;;;16.70;35.30;;;;;;4993977;28;20214;-69
2023/06/12 00:45:09;;;;;;;1.35;1.10;;;16.70;37.60;;;;;;4969930;28;20354;-69
2023/06/12 00:47:36;;;;;;;1.27;1.00;;;16.70;39.40;;;;;;4987678;28;20054;-68
2023/06/12 00:50:02;;;;;;;1.55;1.08;;;16.60;40.70;;;;;;4985066;28;20058;-69
2023/06/12 00:52:34;;;;;;;1.48;1.35;;;16.60;43.20;;;;;;4987114;28;20124;-69
2023/06/12 00:55:01;;;;;;;0.95;0.90;;;16.50;44.80;;;;;;4984232;28;20121;-70
2023/06/12 00:57:27;;;;;;;4.65;1.20;;;16.50;46.90;;;;;;4972626;28;20104;-69
2023/06/12 00:59:53;;;;;;;2.47;1.30;;;16.40;48.30;;;;;;4988106;28;20488;-69
2023/06/12 01:02:21;;;;;;;3.30;1.13;;;16.40;52.50;;;;;;4985490;28;20050;-69
2023/06/12 01:04:49;;;;;;;5.00;1.40;;;16.40;53.70;;;;;;4971097;28;20465;-69
2023/06/12 01:07:40;;;;;;;1.70;1.30;;;16.40;56.30;;;;;;4986236;28;20501;-69
2023/06/12 01:10:06;;;;;;;4.15;1.70;;;16.40;59.10;;;;;;4982475;28;20521;-69
2023/06/12 01:12:33;;;;;;;2.78;1.25;;;16.30;61.70;;;;;;4985583;28;20464;-69
2023/06/12 01:14:59;;;;;;;5.43;1.60;;;16.30;65.20;;;;;;4982634;28;20058;-69
2023/06/12 01:17:27;;;;;;;2.00;1.40;;;16.30;68.10;;;;;;4987180;28;20572;-68
2023/06/12 01:19:56;;;;;;;1.20;1.10;;;16.20;68.60;;;;;;4985893;28;20118;-69
2023/06/12 01:22:24;;;;;;;;;;;16.20;70.90;;;;;;4986751;28;20141;-68
2023/06/12 01:25:28;;;;;;;3.53;1.20;;;16.20;71.80;;;;;;4987541;28;19922;-69
2023/06/12 01:28:25;;;;;;;2.60;1.27;;;16.20;73.60;;;;;;4984084;28;20042;-68
2023/06/12 01:31:16;;;;;;;2.58;1.48;;;16.10;75.20;;;;;;4965845;28;20067;-69
2023/06/12 01:33:54;;;;;;;1.42;1.10;;;16.10;74.80;;;;;;4975963;28;20070;-69
2023/06/12 01:36:24;;;;;;;3.35;1.25;;;16.10;75.20;;;;;;4985705;28;21597;-68
2023/06/12 01:38:54;;;;;;;2.63;1.25;;;16.20;74.50;;;;;;4986663;28;20057;-69
2023/06/12 01:41:22;;;;;;;3.28;1.20;;;16.20;76.10;;;;;;4984547;28;20054;-69
2023/06/12 01:43:48;;;;;;;4.57;1.35;;;16.20;77.50;;;;;;4959426;28;20405;-68
2023/06/12 01:46:14;;;;;;;2.05;1.20;;;16.10;79.70;;;;;;4972897;28;20058;-69
2023/06/12 01:48:40;;;;;;;3.05;1.40;;;16.10;83.40;;;;;;4990180;28;20046;-69
2023/06/12 01:51:06;;;;;;;2.15;1.30;;;16.10;83.00;;;;;;4990853;28;20050;-69
2023/06/12 01:53:31;;;;;;;3.30;1.27;;;16.10;84.30;;;;;;4989569;28;20077;-69
2023/06/12 01:55:57;;;;;;;1.13;1.13;;;16.10;83.30;;;;;;4990521;28;20057;-69
2023/06/12 01:58:23;;;;;;;1.85;1.40;;;16.20;83.40;;;;;;4975803;28;20042;-69
2023/06/12 02:00:49;;;;;;;2.40;1.40;;;16.20;83.40;;;;;;4990209;28;20579;-69
2023/06/12 02:03:14;;;;;;;8.00;1.83;;;16.20;85.00;;;;;;4973050;28;20408;-69
2023/06/12 02:05:40;;;;;;;2.25;1.45;;;16.10;85.70;;;;;;4974100;28;20046;-68
2023/06/12 02:08:07;;;;;;;5.20;1.25;;;16.10;84.40;;;;;;4980960;28;20082;-69
2023/06/12 02:10:32;;;;;;;4.03;1.73;;;16.10;85.60;;;;;;4987932;28;20054;-69
2023/06/12 02:12:58;;;;;;;5.38;2.13;;;16.10;86.20;;;;;;4974505;28;20045;-69
2023/06/12 02:15:24;;;;;;;2.05;1.30;;;16.10;84.80;;;;;;4989473;28;20133;-69
2023/06/12 02:17:50;;;;;;;1.48;1.38;;;16.10;86.10;;;;;;4970531;28;20039;-69
2023/06/12 02:20:16;;;;;;;4.63;1.60;;;16.00;85.90;;;;;;4977507;28;20409;-69
2023/06/12 02:22:42;;;;;;;1.55;1.02;;;16.00;85.60;;;;;;4989849;28;20496;-69
2023/06/12 02:25:08;;;;;;;2.55;1.42;;;16.00;86.50;;;;;;4992659;28;20151;-69
2023/06/12 02:27:34;;;;;;;1.85;1.23;;;16.10;87.20;;;;;;4993359;28;20081;-69
2023/06/12 02:30:00;;;;;;;1.88;1.35;;;16.00;86.90;;;;;;4971854;28;20128;-68
2023/06/12 02:32:27;;;;;;;2.05;1.50;;;16.00;87.90;;;;;;4956512;28;20097;-69
2023/06/12 02:34:54;;;;;;;2.50;1.42;;;16.00;89.50;;;;;;4992069;28;20053;-69
2023/06/12 02:37:20;;;;;;;1.83;1.38;;;16.00;90.00;;;;;;4991847;28;20526;-68
2023/06/12 02:39:46;;;;;;;2.30;1.20;;;16.00;90.40;;;;;;4975000;28;20050;-69
2023/06/12 02:42:11;;;;;;;1.75;1.48;;;16.00;91.70;;;;;;4984522;28;20117;-69
2023/06/12 02:44:37;;;;;;;2.58;1.35;;;16.00;92.30;;;;;;4976895;28;20042;-69
2023/06/12 02:47:04;;;;;;;1.83;1.20;;;16.00;92.50;;;;;;4992297;28;20080;-69
2023/06/12 02:49:30;;;;;;;3.78;1.58;;;15.90;92.30;;;;;;5008064;28;20514;-68
2023/06/12 02:51:56;;;;;;;2.40;1.58;;;15.90;92.20;;;;;;4992447;28;20044;-69
2023/06/12 02:54:24;;;;;;;8.18;1.40;;;15.90;92.80;;;;;;4974716;28;20404;-69
2023/06/12 02:56:50;;;;;;;1.65;1.55;;;15.90;93.00;;;;;;4991722;28;20081;-68
2023/06/12 02:59:22;;;;;;;1.40;1.20;;;15.90;93.00;;;;;;4975388;28;20054;-68
2023/06/12 03:01:48;;;;;;;8.15;1.50;;;15.90;93.40;;;;;;5013442;28;20053;-68
2023/06/12 03:04:21;;;;;;;3.60;1.50;;;15.90;93.50;;;;;;4984415;28;20038;-69
2023/06/12 03:06:51;;;;;;;2.22;1.73;;;15.80;94.10;;;;;;4987029;28;20046;-69
2023/06/12 03:09:18;;;;;;;2.30;1.33;;;15.90;94.30;;;;;;4992723;28;20050;-69
2023/06/12 03:11:44;;;;;;;4.25;1.63;;;15.80;94.80;;;;;;4991417;28;20049;-69
2023/06/12 03:14:12;;;;;;;1.83;1.27;;;15.80;95.80;;;;;;4990138;28;20613;-68
2023/06/12 03:16:38;;;;;;;4.72;1.60;;;15.80;96.60;;;;;;4974627;28;20069;-69
2023/06/12 03:19:05;;;;;;;2.53;1.02;;;15.80;98.10;;;;;;5008664;28;20484;-69
2023/06/12 03:21:31;;;;;;;1.58;1.30;;;15.70;98.70;;;;;;4984152;28;20055;-69
2023/06/12 03:23:57;;;;;;;2.90;1.63;;;15.70;98.70;;;;;;4962054;28;20054;-69
2023/06/12 03:26:23;;;;;;;2.08;1.30;;;15.70;99.10;;;;;;4986770;28;20374;-68
2023/06/12 03:28:49;;;;;;;2.97;1.20;;;15.70;99.60;;;;;;4971858;28;20133;-69
2023/06/12 03:31:15;;;;;;;2.75;1.50;;;15.70;99.60;;;;;;4988489;28;20054;-68
2023/06/12 03:33:40;;;;;;;3.20;1.50;;;15.70;99.90;;;;;;4987919;28;20042;-69
2023/06/12 03:36:07;;;;;;;3.13;1.50;;;15.70;99.90;;;;;;4988901;28;20513;-69
2023/06/12 03:38:33;;;;;;;3.30;1.45;;;15.70;99.90;;;;;;4986143;28;20046;-68
2023/06/12 03:40:59;;;;;;;5.45;1.58;;;15.80;99.70;;;;;;4988184;28;20049;-69
2023/06/12 03:43:24;;;;;;;3.25;1.40;;;15.80;99.60;;;;;;4987252;28;20050;-68
2023/06/12 03:45:50;;;;;;;3.47;1.50;;;15.80;99.70;;;;;;4984578;28;20130;-69
2023/06/12 03:48:16;;;;;;;1.85;1.70;;;15.80;99.40;;;;;;4985607;28;20049;-68
2023/06/12 03:50:42;;;;;;;3.30;1.42;;;15.80;99.50;;;;;;4987527;28;20404;-68
2023/06/12 03:53:08;;;;;;;4.80;1.55;;;15.90;99.70;;;;;;4988160;28;20496;-69
2023/06/12 03:55:34;;;;;;;2.38;1.48;;;15.90;99.90;;;;;;4985467;28;20042;-68
2023/06/12 03:58:01;;;;;;;4.45;1.27;;;15.90;99.90;;;;;;4988052;28;20530;-69
2023/06/12 04:00:27;;;;;;;1.92;1.63;;;16.00;99.90;;;;;;4987750;28;20054;-68
2023/06/12 04:02:54;;;;;;;6.13;1.48;;;16.00;99.90;;;;;;4971587;28;20540;-68
2023/06/12 04:05:20;;;;;;;2.70;1.50;;;16.00;99.80;;;;;;4986657;28;20397;-69
2023/06/12 04:07:46;;;;;;;2.08;1.60;;;16.00;99.60;;;;;;4980715;28;20058;-68
2023/06/12 04:10:12;;;;;;;3.35;1.90;;;16.00;98.80;;;;;;4972098;28;20053;-68
2023/06/12 04:12:38;;;;;;;1.30;1.20;;;16.10;99.10;;;;;;4986728;28;20416;-68
2023/06/12 04:15:05;;;;;;;2.03;1.63;;;16.10;99.30;;;;;;4986217;28;20125;-68
2023/06/12 04:17:31;;;;;;;6.53;1.80;;;16.10;99.40;;;;;;4971154;28;20058;-69
2023/06/12 04:19:57;;;;;;;2.83;1.75;;;16.10;98.90;;;;;;4987689;28;20412;-68
2023/06/12 04:22:25;;;;;;;1.77;1.38;;;16.20;98.50;;;;;;4971536;28;20058;-68
2023/06/12 04:24:55;;;;;;;1.92;1.45;;;16.10;97.80;;;;;;4990007;28;20062;-68
2023/06/12 04:27:20;;;;;;;;;;;16.20;97.80;;;;;;4980549;28;20189;-68
2023/06/12 04:29:46;;;;;;;1.77;1.63;;;16.20;98.40;;;;;;4981789;28;20016;-69
2023/06/12 04:32:14;;;;;;;7.05;1.98;;;16.20;99.60;;;;;;4971500;28;20046;-68
2023/06/12 04:34:43;;;;;;;3.58;2.00;;;16.20;99.50;;;;;;4986324;28;20508;-69
2023/06/12 04:37:11;;;;;;;1.67;1.58;;;16.30;98.80;;;;;;4985778;28;20046;-68
2023/06/12 04:39:38;;;;;;;2.08;1.80;;;16.20;98.30;;;;;;4976372;28;20058;-68
2023/06/12 04:42:05;;;;;;;3.65;1.27;;;16.30;99.20;;;;;;4987703;28;20043;-68
2023/06/12 04:44:34;;;;;;;2.53;1.58;;;16.30;98.30;;;;;;4987577;28;20050;-68
2023/06/12 04:47:04;;;;;;;4.17;1.80;;;16.40;98.60;;;;;;4986478;28;20054;-69
2023/06/12 04:49:35;;;;;;;1.83;1.63;;;16.40;98.30;;;;;;4986206;28;20323;-68
2023/06/12 04:52:03;;;;;;;2.22;1.63;;;16.40;97.70;;;;;;5002232;28;20039;-68
2023/06/12 04:54:35;;;;;;;3.03;1.60;;;16.40;98.90;;;;;;4971137;28;20049;-68
2023/06/12 04:57:03;;;;;;;1.98;1.70;;;16.50;97.80;;;;;;4988608;28;20046;-68
2023/06/12 04:59:30;;;;;;;1.40;1.30;;;16.50;97.30;;;;;;4966711;28;20510;-69
2023/06/12 05:01:58;;;;;;;3.83;2.17;;;16.60;98.40;;;;;;4984723;28;20057;-69
2023/06/12 05:04:23;;;;;;;3.08;2.03;;;16.60;98.70;;;;;;4980678;28;20046;-68
2023/06/12 05:06:51;;;;;;;1.55;1.45;;;16.80;99.40;;;;;;4971473;28;20050;-68
2023/06/12 05:09:19;;;;;;;1.70;1.60;;;16.90;98.50;;;;;;4969680;28;20097;-69
2023/06/12 05:11:45;;;;;;;2.33;1.60;;;16.90;97.00;;;;;;4970684;28;20156;-68
2023/06/12 05:14:10;;;;;;;4.03;1.77;;;17.00;97.10;;;;;;4986429;28;20085;-69
2023/06/12 05:16:36;;;;;;;1.85;1.67;;;17.10;96.20;;;;;;4991091;28;20053;-68
2023/06/12 05:19:02;;;;;;;3.78;1.85;;;17.10;96.00;;;;;;4992510;28;20050;-68
2023/06/12 05:21:28;;;;;;;4.13;1.83;;;17.10;94.70;;;;;;4983194;28;20069;-69
2023/06/12 05:23:55;;;;;;;2.10;1.70;;;17.10;96.20;;;;;;4971178;28;20477;-68
2023/06/12 05:26:21;;;;;;;2.35;1.77;;;17.10;94.00;;;;;;4985086;28;20405;-69
2023/06/12 05:28:48;;;;;;;5.85;2.00;;;17.10;92.50;;;;;;4987001;28;20046;-68
2023/06/12 05:31:14;;;;;;;2.85;1.98;;;17.10;93.70;;;;;;4983749;28;20057;-68
2023/06/12 05:33:40;;;;;;;5.50;1.58;;;17.10;92.30;;;;;;4978557;28;20047;-68
2023/06/12 05:36:07;;;;;;;5.55;1.70;;;17.10;89.70;;;;;;4966186;28;20104;-68
2023/06/12 05:38:33;;;;;;;4.25;1.80;;;17.10;86.80;;;;;;4969583;28;20448;-69
2023/06/12 05:40:59;;;;;;;2.33;1.75;;;17.20;88.60;;;;;;4987159;28;20117;-68
2023/06/12 05:43:25;;;;;;;3.45;1.85;;;17.30;90.00;;;;;;4968562;28;20058;-68
2023/06/12 05:45:50;;;;;;;1.83;1.70;;;17.40;88.50;;;;;;4987297;28;20061;-68
2023/06/12 05:48:18;;;;;;;1.98;1.73;;;17.40;84.50;;;;;;4982622;28;20489;-68
2023/06/12 05:50:44;;;;;;;5.70;1.98;;;17.50;84.70;;;;;;4977073;28;20424;-69
2023/06/12 05:53:10;;;;;;;2.45;1.98;;;17.50;84.70;;;;;;4970049;28;20050;-68
2023/06/12 05:55:36;;;;;;;2.03;1.67;;;17.50;81.80;;;;;;4976254;28;20042;-68
2023/06/12 05:58:02;;;;;;;4.15;2.05;;;17.60;81.60;;;;;;4970824;28;20045;-68
2023/06/12 06:00:28;;;;;;;2.80;2.30;;;17.70;76.80;;;;;;4984491;28;20226;-69
2023/06/12 06:02:54;;;;;;;5.43;2.55;;;17.70;74.20;;;;;;4970765;28;20057;-69
2023/06/12 06:05:20;;;;;;;3.08;1.67;;;17.80;78.70;;;;;;4983498;28;20038;-69
2023/06/12 06:07:50;;;;;;;3.83;2.10;;;17.80;75.10;;;;;;5002791;28;20070;-68
2023/06/12 06:10:16;;;;;;;4.20;1.92;;;17.80;69.10;;;;;;4986910;28;20413;-68
2023/06/12 06:12:41;;;;;;;2.42;2.03;;;17.80;70.20;;;;;;4984596;28;20065;-68
2023/06/12 06:15:08;;;;;;;3.42;2.03;;;17.80;73.30;;;;;;4986490;28;20061;-68
2023/06/12 06:17:33;;;;;;;3.83;2.05;;;17.90;73.50;;;;;;4984318;28;20042;-68
2023/06/12 06:19:59;;;;;;;3.58;1.75;;;17.90;76.40;;;;;;4984728;28;20574;-68
2023/06/12 06:22:25;;;;;;;3.92;2.20;;;18.00;74.20;;;;;;4998374;28;20160;-68
2023/06/12 06:24:52;;;;;;;4.88;2.25;;;18.00;73.50;;;;;;4986461;28;20046;-69
2023/06/12 06:27:19;;;;;;;7.78;2.03;;;18.00;66.10;;;;;;4986913;28;20058;-68
2023/06/12 06:29:45;;;;;;;3.80;2.17;;;18.10;67.90;;;;;;4986108;28;20484;-68
2023/06/12 06:32:10;;;;;;;1.90;1.80;;;18.20;68.70;;;;;;4979471;28;20102;-68
2023/06/12 06:34:37;;;;;;;4.55;2.10;;;18.30;68.00;;;;;;4985355;28;20532;-68
2023/06/12 06:37:03;;;;;;;3.63;2.17;;;18.40;63.60;;;;;;4988511;28;20489;-68
2023/06/12 06:39:28;;;;;;;4.03;2.05;;;18.40;62.60;;;;;;4960531;28;20054;-67
2023/06/12 06:41:54;;;;;;;4.82;1.80;;;18.50;60.40;;;;;;4990047;28;20203;-68
2023/06/12 06:44:20;;;;;;;6.25;1.95;;;18.50;62.20;;;;;;4968485;28;20528;-68
2023/06/12 06:46:47;;;;;;;6.25;2.25;;;18.50;60.50;;;;;;5002361;28;20050;-68
2023/06/12 06:49:13;;;;;;;8.65;2.00;;;18.60;60.70;;;;;;4976356;28;20050;-68
2023/06/12 06:51:39;;;;;;;4.22;2.08;;;18.60;62.50;;;;;;4985340;28;20053;-67
2023/06/12 06:54:04;;;;;;;1.90;1.80;;;18.70;59.90;;;;;;4972961;28;20053;-68
2023/06/12 06:56:30;;;;;;;3.95;2.38;;;18.80;60.80;;;;;;4972142;28;20042;-68
2023/06/12 06:58:56;;;;;;;2.05;1.80;;;18.90;54.10;;;;;;4990351;28;20042;-68
2023/06/12 07:01:22;;;;;;;2.53;1.77;;;18.90;53.80;;;;;;4986415;28;20495;-68
2023/06/12 07:03:49;;;;;;;7.55;1.58;;;19.00;47.60;;;;;;4988584;28;20047;-68
2023/06/12 07:06:15;;;;;;;2.58;2.10;;;19.00;51.30;;;;;;4989937;28;20527;-68
2023/06/12 07:08:40;;;;;;;8.43;2.28;;;19.10;51.70;;;;;;4988053;28;20062;-68
2023/06/12 07:11:06;;;;;;;2.97;1.60;;;19.20;50.70;;;;;;4987914;28;20052;-67
2023/06/12 07:13:32;;;;;;;6.78;1.90;;;19.30;55.70;;;;;;4971132;28;20046;-68
2023/06/12 07:15:58;;;;;;;3.45;1.67;;;19.40;45.60;;;;;;4989077;28;20049;-68
2023/06/12 07:18:24;;;;;;;3.95;1.95;;;19.50;44.90;;;;;;4979245;28;20046;-68
2023/06/12 07:20:50;;;;;;;2.55;1.92;;;19.60;50.10;;;;;;4989569;28;20102;-68
2023/06/12 07:23:15;;;;;;;3.42;1.73;;;19.70;46.50;;;;;;4989365;28;20048;-68
2023/06/12 07:25:41;;;;;;;3.70;2.03;;;19.80;37.60;;;;;;5009814;28;20045;-68
2023/06/12 07:28:07;;;;;;;4.35;1.98;;;20.00;38.30;;;;;;4991950;28;20077;-68
2023/06/12 07:30:33;;;;;;;1.95;1.70;;;20.10;37.50;;;;;;5008016;28;20535;-68
2023/06/12 07:33:00;;;;;;;2.13;1.58;;;20.20;27.00;;;;;;4993788;28;20061;-68
2023/06/12 07:35:26;;;;;;;2.03;1.80;;;20.20;25.30;;;;;;4990470;28;20057;-68
2023/06/12 07:37:52;;;;;;;2.53;1.60;;;20.30;29.70;;;;;;5005197;28;20081;-68
2023/06/12 07:40:18;;;;;;;1.70;1.60;;;20.60;31.50;;;;;;5008381;28;20141;-69
2023/06/12 07:42:44;;;;;;;2.53;1.77;;;20.70;25.50;;;;;;5005994;28;20547;-68
2023/06/12 07:45:10;;;;;;;1.88;1.77;;;20.70;22.30;;;;;;4990581;28;20034;-68
2023/06/12 07:47:35;;;;;;;3.95;1.98;;;20.90;23.10;;;;;;5008445;28;20050;-68
2023/06/12 07:50:02;;;;;;;1.50;1.40;;;21.20;23.20;;;;;;5009230;28;20044;-68
2023/06/12 07:52:28;;;;;;;3.13;1.83;;;21.30;24.60;;;;;;4989966;28;20570;-68
2023/06/12 07:54:53;;;;;;;4.05;2.08;;;21.50;18.80;;;;;;4991676;28;20117;-68
2023/06/12 07:57:20;;;;;;;1.92;1.83;;;21.60;19.10;;;;;;4987229;28;20062;-67
2023/06/12 07:59:45;;;;;;;3.05;2.10;;;21.70;18.10;;;;;;4988847;28;20105;-68
2023/06/12 08:02:12;;;;;;;1.92;1.70;;;21.80;20.00;;;;;;4970303;28;20077;-68
2023/06/12 08:04:40;;;;;;;2.08;1.90;;;21.70;17.60;;;;;;4985798;28;20038;-68
2023/06/12 08:07:10;;;;;;;2.87;2.10;;;21.60;11.90;;;;;;4988181;28;20104;-68
2023/06/12 08:09:40;;;;;;;1.90;1.80;;;21.60;14.10;;;;;;4986837;28;20523;-68
2023/06/12 08:12:07;;;;;;;2.28;2.03;;;21.80;13.80;;;;;;4990642;28;20096;-68
2023/06/12 08:14:32;;;;;;;4.07;1.90;;;21.90;10.70;;;;;;4985807;28;20073;-68
2023/06/12 08:16:58;;;;;;;4.57;1.80;;;22.10;15.30;;;;;;4981490;28;20496;-68
2023/06/12 08:19:24;;;;;;;1.98;1.88;;;22.20;16.40;;;;;;5003837;28;20100;-68
2023/06/12 08:21:50;;;;;;;5.93;1.95;;;22.30;15.30;;;;;;5000696;28;20066;-68
2023/06/12 08:24:16;;;;;;;4.18;2.70;;;22.70;19.60;;;;;;5000876;28;20150;-67
2023/06/12 08:26:42;;;;;;;2.30;2.08;;;22.80;10.70;;;;;;4990540;28;20140;-67
2023/06/12 08:29:08;;;;;;;2.67;1.80;;;22.90;2.00;;;;;;4976128;28;20137;-69
2023/06/12 08:31:37;;;;;;;2.50;1.90;;;23.00;7.30;;;;;;4981277;28;20496;-68
2023/06/12 08:34:03;;;;;;;;;;;23.30;12.00;;;;;;4999572;28;20500;-68
2023/06/12 08:36:29;;;;;;;2.78;2.05;;;23.70;14.00;;;;;;4999879;28;19976;-68
2023/06/12 08:38:55;;;;;;;4.72;2.20;;;24.00;3.80;;;;;;5006749;28;20509;-68
2023/06/12 08:41:24;;;;;;;3.70;2.42;;;24.10;1.00;;;;;;4992585;28;20049;-69
2023/06/12 08:43:51;;;;;;;6.40;2.10;;;24.00;1.00;;;;;;5006685;28;20050;-68
2023/06/12 08:46:17;;;;;;;7.35;2.40;;;23.90;1.00;;;;;;4991127;28;20041;-68
2023/06/12 08:48:45;;;;;;;3.10;2.38;;;23.70;1.00;;;;;;4989261;28;20053;-68
2023/06/12 08:51:11;;;;;;;3.88;1.95;;;23.70;1.00;;;;;;4990929;28;20119;-68
2023/06/12 08:53:37;;;;;;;3.45;2.35;;;23.90;1.00;;;;;;5006350;28;20046;-68
2023/06/12 08:56:03;;;;;;;3.08;1.80;;;24.30;1.00;;;;;;4990564;28;20053;-68
2023/06/12 08:58:29;;;;;;;3.17;2.25;;;24.60;1.00;;;;;;4990008;28;20048;-68
2023/06/12 09:00:57;;;;;;;2.58;2.05;;;24.80;1.00;;;;;;5007190;28;20156;-68
2023/06/12 09:03:23;;;;;;;2.08;1.92;;;24.90;1.00;;;;;;4994001;28;20085;-68
2023/06/12 09:05:52;;;;;;;5.07;2.00;;;25.10;1.00;;;;;;4989110;28;20554;-68
2023/06/12 09:08:18;;;;;;;2.78;1.80;;;25.30;1.00;;;;;;4972488;28;20056;-68
2023/06/12 09:10:44;;;;;;;2.72;2.10;;;25.40;1.00;;;;;;4985913;28;20053;-68
2023/06/12 09:13:10;;;;;;;2.17;1.98;;;25.50;1.00;;;;;;5002215;28;20042;-68
2023/06/12 09:15:49;;;;;;;3.72;2.00;;;25.40;1.00;;;;;;4994058;28;20050;-69
2023/06/12 09:18:18;;;;;;;4.53;2.55;;;25.50;1.00;;;;;;4988230;28;20089;-68
2023/06/12 09:20:43;;;;;;;3.42;2.45;;;25.60;1.00;;;;;;4982400;28;20058;-68
2023/06/12 09:23:11;;;;;;;2.65;2.35;;;25.90;1.00;;;;;;4999404;28;20146;-68
2023/06/12 09:25:43;;;;;;;2.30;2.15;;;26.00;1.00;;;;;;4966381;28;20053;-68
2023/06/12 09:28:10;;;;;;;2.50;2.10;;;26.10;1.00;;;;;;4984744;28;20606;-68
2023/06/12 09:30:43;;;;;;;4.15;2.53;;;26.00;1.00;;;;;;5007078;28;20129;-68
2023/06/12 09:33:09;;;;;;;3.97;2.13;;;26.00;1.00;;;;;;5001125;28;20034;-68
2023/06/12 09:35:54;;;;;;;5.47;2.17;;;26.00;1.00;;;;;;5001960;28;20084;-68
2023/06/12 09:38:38;;;;;;;3.30;2.58;;;26.10;1.00;;;;;;4984081;28;20042;-68
2023/06/12 09:41:06;;;;;;;3.50;2.55;;;26.10;1.00;;;;;;5001044;28;20046;-68
2023/06/12 09:43:32;;;;;;;9.07;2.55;;;26.10;1.00;;;;;;4984735;28;20520;-69
2023/06/12 09:46:02;;;;;;;3.60;2.47;;;26.20;1.00;;;;;;4988586;28;20073;-67
2023/06/12 09:48:38;;;;;;;2.47;2.28;;;26.10;1.00;;;;;;5007684;28;20050;-68
2023/06/12 09:51:06;;;;;;;2.95;2.22;;;26.10;1.00;;;;;;4999225;28;20038;-68
2023/06/12 09:53:38;;;;;;;3.80;2.50;;;26.20;1.00;;;;;;5005178;28;20034;-68
2023/06/12 09:56:08;;;;;;;4.40;2.05;;;26.20;1.00;;;;;;4990103;28;20061;-67
2023/06/12 09:58:38;;;;;;;2.88;2.20;;;26.20;1.00;;;;;;4993148;28;20488;-67
2023/06/12 10:01:06;;;;;;;2.45;2.20;;;26.20;1.00;;;;;;5007124;28;20038;-68
2023/06/12 10:03:41;;;;;;;2.05;1.90;;;26.30;1.00;;;;;;5006867;28;20128;-67
2023/06/12 10:06:10;;;;;;;2.08;1.98;;;26.30;1.00;;;;;;4989701;28;20484;-67
2023/06/12 10:08:36;;;;;;;2.58;2.20;;;26.40;1.00;;;;;;4993436;28;20090;-68
2023/06/12 10:11:07;;;;;;;5.05;2.25;;;26.50;1.00;;;;;;4975592;28;20081;-67
2023/06/12 10:13:35;;;;;;;4.18;2.38;;;26.60;1.00;;;;;;5011529;28;20064;-68
2023/06/12 10:16:01;;;;;;;3.75;1.80;;;26.60;1.00;;;;;;4983322;28;20087;-67
2023/06/12 10:18:28;;;;;;;3.30;2.20;;;26.60;1.00;;;;;;4983600;28;20057;-67
2023/06/12 10:20:54;;;;;;;1.73;1.70;;;26.70;1.00;;;;;;5007208;28;20068;-68
2023/06/12 10:23:22;;;;;;;4.03;2.38;;;26.80;1.00;;;;;;4992376;28;20112;-68
2023/06/12 10:25:50;;;;;;;2.67;2.30;;;26.80;1.00;;;;;;4984685;28;20050;-67
2023/06/12 10:28:16;;;;;;;2.13;2.00;;;26.80;1.00;;;;;;4991616;28;20293;-68
2023/06/12 10:31:30;;;;;;;2.22;2.08;;;26.90;1.00;;;;;;4985317;28;20125;-68
2023/06/12 10:34:05;;;;;;;1.77;1.67;;;26.80;1.00;;;;;;4985204;28;20523;-68
2023/06/12 10:36:57;;;;;;;2.40;2.20;;;26.70;1.00;;;;;;4985895;28;20049;-67
2023/06/12 10:39:25;;;;;;;2.03;1.92;;;26.70;1.00;;;;;;5002208;28;20042;-68
2023/06/12 10:41:56;;;;;;;1.83;1.73;;;26.60;1.00;;;;;;5008642;28;20399;-67
2023/06/12 10:48:05;;;;;;;1.88;1.77;;;26.70;1.00;;;;;;5008424;28;20528;-68
2023/06/12 10:50:52;;;;;;;2.65;2.00;;;26.60;1.00;;;;;;5008879;28;20060;-68
2023/06/12 10:53:29;;;;;;;2.97;2.00;;;26.70;1.00;;;;;;5007253;28;20050;-67
2023/06/12 10:56:07;;;;;;;3.25;1.70;;;26.80;1.00;;;;;;5007986;28;20050;-68
2023/06/12 10:58:40;;;;;;;2.25;1.80;;;26.80;1.00;;;;;;5006860;28;20155;-67
2023/06/12 11:01:12;;;;;;;3.60;2.13;;;26.90;1.00;;;;;;4992137;28;20166;-68
2023/06/12 11:03:42;;;;;;;1.90;1.80;;;27.00;1.00;;;;;;4989320;28;20038;-67
2023/06/12 11:06:13;;;;;;;3.88;1.70;;;26.90;1.00;;;;;;4991762;28;20057;-67
2023/06/12 11:08:43;;;;;;;2.63;1.98;;;27.00;1.00;;;;;;5010202;28;20308;-68
2023/06/12 11:11:14;;;;;;;2.95;2.15;;;27.10;1.00;;;;;;5006743;28;20045;-68
2023/06/12 11:13:41;;;;;;;2.33;1.83;;;27.00;1.00;;;;;;4992152;28;20046;-68
2023/06/12 11:16:12;;;;;;;2.30;1.90;;;27.00;1.00;;;;;;4989396;28;20038;-68
2023/06/12 11:18:40;;;;;;;1.83;1.73;;;26.90;1.00;;;;;;4991104;28;20049;-68
2023/06/12 11:21:09;;;;;;;1.95;1.85;;;27.00;1.00;;;;;;4986508;28;20053;-68
2023/06/12 11:23:40;;;;;;;2.05;1.52;;;26.90;1.00;;;;;;5007542;28;20053;-67
2023/06/12 11:26:07;;;;;;;3.72;2.00;;;26.80;1.00;;;;;;5003213;28;20464;-68
2023/06/12 11:28:33;;;;;;;4.43;2.20;;;26.90;1.00;;;;;;4990965;28;20144;-68
2023/06/12 11:31:03;;;;;;;2.15;1.63;;;27.00;1.00;;;;;;4999376;28;20077;-69
2023/06/12 11:33:32;;;;;;;3.15;2.00;;;27.00;1.00;;;;;;4997874;28;20045;-68
2023/06/12 11:35:59;;;;;;;5.93;2.05;;;27.20;1.00;;;;;;5007143;28;20065;-68
2023/06/12 11:38:26;;;;;;;1.67;1.58;;;27.30;1.00;;;;;;4975031;28;20527;-68
2023/06/12 11:40:53;;;;;;;2.40;2.20;;;27.50;1.00;;;;;;5005511;28;20042;-67
2023/06/12 11:43:21;;;;;;;2.85;2.28;;;27.50;1.00;;;;;;5004001;28;20112;-67
2023/06/12 11:45:49;;;;;;;2.50;1.98;;;27.40;1.00;;;;;;5011160;28;20042;-68
2023/06/12 11:48:17;;;;;;;2.47;2.15;;;27.50;1.00;;;;;;5002128;28;20046;-68
2023/06/12 11:50:53;;;;;;;3.25;1.75;;;27.50;1.00;;;;;;5000046;28;20105;-67
2023/06/12 11:53:20;;;;;;;1.77;1.67;;;27.50;1.00;;;;;;5008752;28;20053;-68
2023/06/12 11:55:57;;;;;;;2.20;2.00;;;27.50;1.00;;;;;;5008878;28;20612;-68
2023/06/12 11:58:37;;;;;;;2.25;2.00;;;27.50;1.00;;;;;;4991830;28;20117;-68
2023/06/12 12:01:25;;;;;;;2.17;1.98;;;27.50;1.00;;;;;;4991683;28;20073;-68
2023/06/12 12:03:52;;;;;;;1.80;1.70;;;27.50;1.00;;;;;;5006674;28;20041;-68
2023/06/12 12:06:18;;;;;;;2.65;1.95;;;27.50;1.00;;;;;;4975362;28;20044;-69
2023/06/12 12:08:44;;;;;;;1.80;1.70;;;27.50;1.00;;;;;;5009076;28;20169;-68
2023/06/12 12:11:20;;;;;;;2.90;1.77;;;27.50;1.00;;;;;;4973597;28;20562;-68
2023/06/12 12:13:59;;;;;;;2.97;2.13;;;27.50;1.00;;;;;;4991945;28;20049;-68
2023/06/12 12:16:28;;;;;;;3.17;1.55;;;27.50;1.00;;;;;;4987393;28;20048;-68
2023/06/12 12:18:55;;;;;;;2.10;1.90;;;27.60;1.00;;;;;;4996164;28;20061;-69
2023/06/12 12:21:23;;;;;;;2.55;1.92;;;27.50;1.00;;;;;;4971229;28;20497;-68
2023/06/12 12:23:49;;;;;;;;;;;27.50;1.00;;;;;;4988650;28;20703;-69
2023/06/12 12:26:15;;;;;;;2.45;1.75;;;27.60;1.00;;;;;;4971369;28;20185;-68
2023/06/12 12:28:47;;;;;;;1.88;1.77;;;27.60;1.00;;;;;;4986975;28;20043;-68
2023/06/12 12:31:13;;;;;;;1.83;1.73;;;27.70;1.00;;;;;;4987634;28;20054;-69
2023/06/12 12:33:39;;;;;;;1.85;1.73;;;27.60;1.00;;;;;;4987957;28;20038;-69
2023/06/12 12:36:06;;;;;;;1.88;1.77;;;27.70;1.00;;;;;;4987296;28;20050;-68
2023/06/12 12:38:32;;;;;;;1.90;1.80;;;27.70;1.00;;;;;;4986834;28;20042;-68
2023/06/12 12:40:59;;;;;;;2.47;2.28;;;27.70;1.00;;;;;;4984353;28;20469;-68
2023/06/12 12:43:25;;;;;;;2.33;1.95;;;27.70;1.00;;;;;;4985968;28;20117;-68
2023/06/12 12:45:53;;;;;;;4.60;2.35;;;27.70;1.00;;;;;;4983279;28;20406;-68
2023/06/12 12:48:20;;;;;;;2.17;1.98;;;27.70;1.00;;;;;;4980041;28;20113;-68
2023/06/12 12:50:46;;;;;;;1.90;1.80;;;27.70;1.00;;;;;;4981994;28;20082;-68
2023/06/12 12:53:16;;;;;;;2.50;2.15;;;27.70;1.00;;;;;;4987391;28;20085;-68
2023/06/12 12:55:42;;;;;;;1.75;1.60;;;27.70;1.00;;;;;;4986215;28;20467;-68
2023/06/12 12:58:08;;;;;;;3.45;1.92;;;27.70;1.00;;;;;;4988093;28;20077;-68